sensor_id;sensor_type;location;lat;lon;timestamp;temperature;humidity
45715;DHT22;31430;61.646;24.704;2022-10-22T00:01:15;5.20;99.90
45715;DHT22;31430;61.646;24.704;2022-10-22T00:03:40;5.20;99.90
45715;DHT22;31430;61.646;24.704;2022-10-22T00:06:06;5.20;99.90
45715;DHT22;31430;61.646;24.704;2022-10-22T00:08:32;5.20;99.90
45715;DHT22;31430;61.646;24.704;2022-10-22T00:10:57;5.20;99.90
45715;DHT22;31430;61.646;24.704;2022-10-22T00:13:23;5.20;99.90
45715;DHT22;31430;61.646;24.704;2022-10-22T00:15:49;5.20;99.90
45715;DHT22;31430;61.646;24.704;2022-10-22T00:18:15;5.10;99.90
45715;DHT22;31430;61.646;24.704;2022-10-22T00:20:41;5.20;99.90
45715;DHT22;31430;61.646;24.704;2022-10-22T00:23:07;5.20;99.90
45715;DHT22;31430;61.646;24.704;2022-10-22T00:25:34;5.20;99.90
45715;DHT22;31430;61.646;24.704;2022-10-22T00:28:00;5.20;99.90
45715;DHT22;31430;61.646;24.704;2022-10-22T00:30:27;5.20;99.90
45715;DHT22;31430;61.646;24.704;2022-10-22T00:32:52;5.20;99.90
45715;DHT22;31430;61.646;24.704;2022-10-22T00:35:18;5.20;99.90
45715;DHT22;31430;61.646;24.704;2022-10-22T00:37:44;5.20;99.90
45715;DHT22;31430;61.646;24.704;2022-10-22T00:40:10;5.20;99.90
45715;DHT22;31430;61.646;24.704;2022-10-22T00:42:36;5.20;99.90
45715;DHT22;31430;61.646;24.704;2022-10-22T00:47:32;5.10;99.90
45715;DHT22;31430;61.646;24.704;2022-10-22T00:49:59;5.20;99.90
45715;DHT22;31430;61.646;24.704;2022-10-22T00:52:26;5.10;99.90
45715;DHT22;31430;61.646;24.704;2022-10-22T00:54:51;5.20;99.90
45715;DHT22;31430;61.646;24.704;2022-10-22T00:57:19;5.10;99.90
45715;DHT22;31430;61.646;24.704;2022-10-22T00:59:45;5.10;99.90
45715;DHT22;31430;61.646;24.704;2022-10-22T01:02:11;5.10;99.90
45715;DHT22;31430;61.646;24.704;2022-10-22T01:04:37;5.10;99.90
45715;DHT22;31430;61.646;24.704;2022-10-22T01:07:03;5.10;99.90
45715;DHT22;31430;61.646;24.704;2022-10-22T01:09:40;5.20;99.90
45715;DHT22;31430;61.646;24.704;2022-10-22T01:12:17;5.10;99.90
45715;DHT22;31430;61.646;24.704;2022-10-22T01:15:22;5.10;99.90
45715;DHT22;31430;61.646;24.704;2022-10-22T01:31:30;5.10;99.90
45715;DHT22;31430;61.646;24.704;2022-10-22T01:33:58;5.10;99.90
45715;DHT22;31430;61.646;24.704;2022-10-22T01:36:25;5.10;99.90
45715;DHT22;31430;61.646;24.704;2022-10-22T01:38:52;5.10;99.90
45715;DHT22;31430;61.646;24.704;2022-10-22T01:41:18;5.10;99.90
45715;DHT22;31430;61.646;24.704;2022-10-22T01:43:44;5.20;99.90
45715;DHT22;31430;61.646;24.704;2022-10-22T01:46:11;5.20;99.90
45715;DHT22;31430;61.646;24.704;2022-10-22T01:54:24;5.20;99.90
45715;DHT22;31430;61.646;24.704;2022-10-22T02:05:02;5.20;99.90
45715;DHT22;31430;61.646;24.704;2022-10-22T02:07:33;5.20;99.90
45715;DHT22;31430;61.646;24.704;2022-10-22T02:10:00;5.20;99.90
45715;DHT22;31430;61.646;24.704;2022-10-22T02:12:28;5.20;99.90
45715;DHT22;31430;61.646;24.704;2022-10-22T02:14:56;5.20;99.90
45715;DHT22;31430;61.646;24.704;2022-10-22T02:17:25;5.10;99.90
45715;DHT22;31430;61.646;24.704;2022-10-22T02:22:19;5.10;99.90
45715;DHT22;31430;61.646;24.704;2022-10-22T02:24:45;5.10;99.90
45715;DHT22;31430;61.646;24.704;2022-10-22T02:30:15;5.10;99.90
45715;DHT22;31430;61.646;24.704;2022-10-22T02:33:12;5.20;99.90
45715;DHT22;31430;61.646;24.704;2022-10-22T02:35:40;5.20;99.90
45715;DHT22;31430;61.646;24.704;2022-10-22T02:38:07;5.20;99.90
45715;DHT22;31430;61.646;24.704;2022-10-22T02:40:33;5.20;99.90
45715;DHT22;31430;61.646;24.704;2022-10-22T02:42:59;5.10;99.90
45715;DHT22;31430;61.646;24.704;2022-10-22T02:45:24;5.20;99.90
45715;DHT22;31430;61.646;24.704;2022-10-22T02:47:51;5.10;99.90
45715;DHT22;31430;61.646;24.704;2022-10-22T02:50:17;5.10;99.90
45715;DHT22;31430;61.646;24.704;2022-10-22T02:52:42;5.10;99.90
45715;DHT22;31430;61.646;24.704;2022-10-22T02:55:08;5.10;99.90
45715;DHT22;31430;61.646;24.704;2022-10-22T02:57:34;5.10;99.90
45715;DHT22;31430;61.646;24.704;2022-10-22T03:00:00;5.10;99.90
45715;DHT22;31430;61.646;24.704;2022-10-22T03:02:25;5.10;99.90
45715;DHT22;31430;61.646;24.704;2022-10-22T03:04:51;5.10;99.90
45715;DHT22;31430;61.646;24.704;2022-10-22T03:07:17;5.00;99.90
45715;DHT22;31430;61.646;24.704;2022-10-22T03:09:42;5.10;99.90
45715;DHT22;31430;61.646;24.704;2022-10-22T03:12:08;5.10;99.90
45715;DHT22;31430;61.646;24.704;2022-10-22T03:14:34;5.10;99.90
45715;DHT22;31430;61.646;24.704;2022-10-22T03:17:00;5.10;99.90
45715;DHT22;31430;61.646;24.704;2022-10-22T03:19:26;5.10;99.90
45715;DHT22;31430;61.646;24.704;2022-10-22T03:22:00;5.10;99.90
45715;DHT22;31430;61.646;24.704;2022-10-22T03:24:29;5.10;99.90
45715;DHT22;31430;61.646;24.704;2022-10-22T03:26:56;5.10;99.90
45715;DHT22;31430;61.646;24.704;2022-10-22T03:29:23;5.10;99.90
45715;DHT22;31430;61.646;24.704;2022-10-22T03:31:51;5.10;99.90
45715;DHT22;31430;61.646;24.704;2022-10-22T03:34:17;5.10;99.90
45715;DHT22;31430;61.646;24.704;2022-10-22T03:36:43;5.00;99.90
45715;DHT22;31430;61.646;24.704;2022-10-22T03:39:12;5.00;99.90
45715;DHT22;31430;61.646;24.704;2022-10-22T03:41:39;5.10;99.90
45715;DHT22;31430;61.646;24.704;2022-10-22T03:44:05;5.10;99.90
45715;DHT22;31430;61.646;24.704;2022-10-22T03:46:31;5.10;99.90
45715;DHT22;31430;61.646;24.704;2022-10-22T03:48:56;5.10;99.90
45715;DHT22;31430;61.646;24.704;2022-10-22T03:51:22;5.00;99.90
45715;DHT22;31430;61.646;24.704;2022-10-22T03:53:47;5.00;99.90
45715;DHT22;31430;61.646;24.704;2022-10-22T03:56:13;5.10;99.90
45715;DHT22;31430;61.646;24.704;2022-10-22T03:58:40;5.10;99.90
45715;DHT22;31430;61.646;24.704;2022-10-22T04:01:10;5.10;99.90
45715;DHT22;31430;61.646;24.704;2022-10-22T04:03:37;5.10;99.90
45715;DHT22;31430;61.646;24.704;2022-10-22T04:06:05;5.10;99.90
45715;DHT22;31430;61.646;24.704;2022-10-22T04:08:31;5.10;99.90
45715;DHT22;31430;61.646;24.704;2022-10-22T04:10:57;5.10;99.90
45715;DHT22;31430;61.646;24.704;2022-10-22T04:13:23;5.10;99.90
45715;DHT22;31430;61.646;24.704;2022-10-22T04:15:48;5.00;99.90
45715;DHT22;31430;61.646;24.704;2022-10-22T04:18:17;5.00;99.90
45715;DHT22;31430;61.646;24.704;2022-10-22T04:20:43;5.00;99.90
45715;DHT22;31430;61.646;24.704;2022-10-22T04:23:08;5.00;99.90
45715;DHT22;31430;61.646;24.704;2022-10-22T04:25:34;5.10;99.90
45715;DHT22;31430;61.646;24.704;2022-10-22T04:27:59;5.10;99.90
45715;DHT22;31430;61.646;24.704;2022-10-22T04:30:26;5.10;99.90
45715;DHT22;31430;61.646;24.704;2022-10-22T04:32:51;5.10;99.90
45715;DHT22;31430;61.646;24.704;2022-10-22T04:35:17;5.10;99.90
45715;DHT22;31430;61.646;24.704;2022-10-22T04:37:43;5.10;99.90
45715;DHT22;31430;61.646;24.704;2022-10-22T04:40:09;5.20;99.90
45715;DHT22;31430;61.646;24.704;2022-10-22T04:42:35;5.10;99.90
45715;DHT22;31430;61.646;24.704;2022-10-22T04:45:01;5.10;99.90
45715;DHT22;31430;61.646;24.704;2022-10-22T04:47:26;5.10;99.90
45715;DHT22;31430;61.646;24.704;2022-10-22T04:49:52;5.10;99.90
45715;DHT22;31430;61.646;24.704;2022-10-22T04:52:17;5.20;99.90
45715;DHT22;31430;61.646;24.704;2022-10-22T04:54:44;5.20;99.90
45715;DHT22;31430;61.646;24.704;2022-10-22T04:57:09;5.20;99.90
45715;DHT22;31430;61.646;24.704;2022-10-22T04:59:35;5.20;99.90
45715;DHT22;31430;61.646;24.704;2022-10-22T05:02:01;5.20;99.90
45715;DHT22;31430;61.646;24.704;2022-10-22T05:04:26;5.10;99.90
45715;DHT22;31430;61.646;24.704;2022-10-22T05:06:52;5.20;99.90
45715;DHT22;31430;61.646;24.704;2022-10-22T05:09:19;5.20;99.90
45715;DHT22;31430;61.646;24.704;2022-10-22T05:11:48;5.10;99.90
45715;DHT22;31430;61.646;24.704;2022-10-22T05:14:20;5.20;99.90
45715;DHT22;31430;61.646;24.704;2022-10-22T05:16:46;5.20;99.90
45715;DHT22;31430;61.646;24.704;2022-10-22T05:19:18;5.20;99.90
45715;DHT22;31430;61.646;24.704;2022-10-22T05:21:44;5.20;99.90
45715;DHT22;31430;61.646;24.704;2022-10-22T05:24:10;5.10;99.90
45715;DHT22;31430;61.646;24.704;2022-10-22T05:26:36;5.10;99.90
45715;DHT22;31430;61.646;24.704;2022-10-22T05:29:01;5.10;99.90
45715;DHT22;31430;61.646;24.704;2022-10-22T05:31:27;5.00;99.90
45715;DHT22;31430;61.646;24.704;2022-10-22T05:33:53;5.00;99.90
45715;DHT22;31430;61.646;24.704;2022-10-22T05:36:20;5.00;99.90
45715;DHT22;31430;61.646;24.704;2022-10-22T05:38:46;5.00;99.90
45715;DHT22;31430;61.646;24.704;2022-10-22T05:41:13;4.90;99.90
45715;DHT22;31430;61.646;24.704;2022-10-22T05:43:39;4.90;99.90
45715;DHT22;31430;61.646;24.704;2022-10-22T05:46:13;4.90;99.90
45715;DHT22;31430;61.646;24.704;2022-10-22T05:48:40;4.90;99.90
45715;DHT22;31430;61.646;24.704;2022-10-22T05:51:08;5.00;99.90
45715;DHT22;31430;61.646;24.704;2022-10-22T05:53:37;5.00;99.90
45715;DHT22;31430;61.646;24.704;2022-10-22T05:56:05;5.00;99.90
45715;DHT22;31430;61.646;24.704;2022-10-22T05:58:32;5.00;99.90
45715;DHT22;31430;61.646;24.704;2022-10-22T06:01:06;5.10;99.90
45715;DHT22;31430;61.646;24.704;2022-10-22T06:03:32;5.10;99.90
45715;DHT22;31430;61.646;24.704;2022-10-22T06:06:05;5.10;99.90
45715;DHT22;31430;61.646;24.704;2022-10-22T06:08:32;5.10;99.90
45715;DHT22;31430;61.646;24.704;2022-10-22T06:10:58;5.10;99.90
45715;DHT22;31430;61.646;24.704;2022-10-22T06:13:24;5.10;99.90
45715;DHT22;31430;61.646;24.704;2022-10-22T06:15:50;5.10;99.90
45715;DHT22;31430;61.646;24.704;2022-10-22T06:18:18;5.20;99.90
45715;DHT22;31430;61.646;24.704;2022-10-22T06:20:43;5.20;99.90
45715;DHT22;31430;61.646;24.704;2022-10-22T06:23:10;5.20;99.90
45715;DHT22;31430;61.646;24.704;2022-10-22T06:25:35;5.20;99.90
45715;DHT22;31430;61.646;24.704;2022-10-22T06:28:01;5.20;99.90
45715;DHT22;31430;61.646;24.704;2022-10-22T06:30:27;5.30;99.90
45715;DHT22;31430;61.646;24.704;2022-10-22T06:32:52;5.30;99.90
45715;DHT22;31430;61.646;24.704;2022-10-22T06:35:18;5.40;99.90
45715;DHT22;31430;61.646;24.704;2022-10-22T06:37:43;5.40;99.90
45715;DHT22;31430;61.646;24.704;2022-10-22T06:40:12;5.50;99.90
45715;DHT22;31430;61.646;24.704;2022-10-22T06:42:37;5.50;99.90
45715;DHT22;31430;61.646;24.704;2022-10-22T06:45:03;5.50;99.90
45715;DHT22;31430;61.646;24.704;2022-10-22T06:47:29;5.50;99.90
45715;DHT22;31430;61.646;24.704;2022-10-22T06:49:57;5.50;99.90
45715;DHT22;31430;61.646;24.704;2022-10-22T06:52:23;5.60;99.90
45715;DHT22;31430;61.646;24.704;2022-10-22T06:54:49;5.60;99.90
45715;DHT22;31430;61.646;24.704;2022-10-22T06:57:14;5.60;99.90
45715;DHT22;31430;61.646;24.704;2022-10-22T06:59:40;5.70;99.90
45715;DHT22;31430;61.646;24.704;2022-10-22T07:02:06;5.80;99.90
45715;DHT22;31430;61.646;24.704;2022-10-22T07:04:31;5.80;99.90
45715;DHT22;31430;61.646;24.704;2022-10-22T07:06:57;5.80;99.90
45715;DHT22;31430;61.646;24.704;2022-10-22T07:09:22;5.90;99.90
45715;DHT22;31430;61.646;24.704;2022-10-22T07:11:48;5.90;99.90
45715;DHT22;31430;61.646;24.704;2022-10-22T07:14:14;5.90;99.90
45715;DHT22;31430;61.646;24.704;2022-10-22T07:16:39;6.00;99.90
45715;DHT22;31430;61.646;24.704;2022-10-22T07:19:10;6.00;99.90
45715;DHT22;31430;61.646;24.704;2022-10-22T07:21:36;6.10;99.90
45715;DHT22;31430;61.646;24.704;2022-10-22T07:24:01;6.10;99.90
45715;DHT22;31430;61.646;24.704;2022-10-22T07:26:28;6.10;99.90
45715;DHT22;31430;61.646;24.704;2022-10-22T07:28:55;6.00;99.90
45715;DHT22;31430;61.646;24.704;2022-10-22T07:31:21;6.10;99.90
45715;DHT22;31430;61.646;24.704;2022-10-22T07:33:47;6.10;99.90
45715;DHT22;31430;61.646;24.704;2022-10-22T07:36:14;6.20;99.90
45715;DHT22;31430;61.646;24.704;2022-10-22T07:38:53;6.20;99.90
45715;DHT22;31430;61.646;24.704;2022-10-22T07:41:19;6.30;99.90
45715;DHT22;31430;61.646;24.704;2022-10-22T07:43:45;6.30;99.90
45715;DHT22;31430;61.646;24.704;2022-10-22T07:46:10;6.40;99.90
45715;DHT22;31430;61.646;24.704;2022-10-22T07:48:37;6.40;99.90
45715;DHT22;31430;61.646;24.704;2022-10-22T07:51:03;6.50;99.90
45715;DHT22;31430;61.646;24.704;2022-10-22T07:53:30;6.60;99.90
45715;DHT22;31430;61.646;24.704;2022-10-22T07:55:56;6.70;99.90
45715;DHT22;31430;61.646;24.704;2022-10-22T07:58:21;6.70;99.90
45715;DHT22;31430;61.646;24.704;2022-10-22T08:00:48;6.80;99.90
45715;DHT22;31430;61.646;24.704;2022-10-22T08:03:14;6.70;99.90
45715;DHT22;31430;61.646;24.704;2022-10-22T08:05:40;6.70;99.90
45715;DHT22;31430;61.646;24.704;2022-10-22T08:08:08;6.70;99.90
45715;DHT22;31430;61.646;24.704;2022-10-22T08:10:34;6.70;99.90
45715;DHT22;31430;61.646;24.704;2022-10-22T08:13:00;6.70;99.90
45715;DHT22;31430;61.646;24.704;2022-10-22T08:15:26;6.80;99.90
45715;DHT22;31430;61.646;24.704;2022-10-22T08:17:51;6.70;99.90
45715;DHT22;31430;61.646;24.704;2022-10-22T08:20:18;6.70;99.90
45715;DHT22;31430;61.646;24.704;2022-10-22T08:22:44;6.70;99.90
45715;DHT22;31430;61.646;24.704;2022-10-22T08:25:10;6.70;99.90
45715;DHT22;31430;61.646;24.704;2022-10-22T08:27:36;6.70;99.90
45715;DHT22;31430;61.646;24.704;2022-10-22T08:30:03;6.80;99.90
45715;DHT22;31430;61.646;24.704;2022-10-22T08:32:28;6.80;99.90
45715;DHT22;31430;61.646;24.704;2022-10-22T08:34:54;6.80;99.90
45715;DHT22;31430;61.646;24.704;2022-10-22T08:37:19;7.00;99.90
45715;DHT22;31430;61.646;24.704;2022-10-22T08:39:45;6.90;99.90
45715;DHT22;31430;61.646;24.704;2022-10-22T08:45:10;7.10;99.90
45715;DHT22;31430;61.646;24.704;2022-10-22T08:53:10;7.30;99.90
45715;DHT22;31430;61.646;24.704;2022-10-22T08:55:38;7.30;99.90
45715;DHT22;31430;61.646;24.704;2022-10-22T08:58:20;7.40;99.90
45715;DHT22;31430;61.646;24.704;2022-10-22T09:00:57;7.30;99.90
45715;DHT22;31430;61.646;24.704;2022-10-22T09:03:51;7.50;99.90
45715;DHT22;31430;61.646;24.704;2022-10-22T09:06:30;7.50;99.90
45715;DHT22;31430;61.646;24.704;2022-10-22T09:08:57;7.60;99.90
45715;DHT22;31430;61.646;24.704;2022-10-22T09:11:36;7.60;99.90
45715;DHT22;31430;61.646;24.704;2022-10-22T09:14:02;7.60;99.90
45715;DHT22;31430;61.646;24.704;2022-10-22T09:24:43;7.70;99.90
45715;DHT22;31430;61.646;24.704;2022-10-22T09:27:13;7.80;99.90
45715;DHT22;31430;61.646;24.704;2022-10-22T09:29:39;7.80;99.90
45715;DHT22;31430;61.646;24.704;2022-10-22T09:32:05;7.80;99.90
45715;DHT22;31430;61.646;24.704;2022-10-22T09:34:32;7.90;99.90
45715;DHT22;31430;61.646;24.704;2022-10-22T09:37:02;7.80;99.90
45715;DHT22;31430;61.646;24.704;2022-10-22T09:39:40;7.80;99.90
45715;DHT22;31430;61.646;24.704;2022-10-22T09:42:09;7.80;99.90
45715;DHT22;31430;61.646;24.704;2022-10-22T09:44:36;7.90;99.90
45715;DHT22;31430;61.646;24.704;2022-10-22T09:47:24;8.00;99.90
45715;DHT22;31430;61.646;24.704;2022-10-22T09:50:05;7.90;99.90
45715;DHT22;31430;61.646;24.704;2022-10-22T09:52:33;8.00;99.90
45715;DHT22;31430;61.646;24.704;2022-10-22T09:55:01;7.90;99.90
45715;DHT22;31430;61.646;24.704;2022-10-22T09:57:28;8.00;99.90
45715;DHT22;31430;61.646;24.704;2022-10-22T09:59:54;8.00;99.90
45715;DHT22;31430;61.646;24.704;2022-10-22T10:02:27;8.00;99.90
45715;DHT22;31430;61.646;24.704;2022-10-22T10:04:54;7.90;99.90
45715;DHT22;31430;61.646;24.704;2022-10-22T10:07:26;8.00;99.90
45715;DHT22;31430;61.646;24.704;2022-10-22T10:09:53;7.90;99.90
45715;DHT22;31430;61.646;24.704;2022-10-22T10:12:45;8.10;99.90
45715;DHT22;31430;61.646;24.704;2022-10-22T10:15:27;8.00;99.90
45715;DHT22;31430;61.646;24.704;2022-10-22T10:20:52;8.10;99.90
45715;DHT22;31430;61.646;24.704;2022-10-22T10:26:35;8.10;99.90
45715;DHT22;31430;61.646;24.704;2022-10-22T10:33:00;8.20;99.90
45715;DHT22;31430;61.646;24.704;2022-10-22T10:37:40;8.20;99.90
45715;DHT22;31430;61.646;24.704;2022-10-22T10:42:59;8.30;99.90
45715;DHT22;31430;61.646;24.704;2022-10-22T10:51:02;8.20;99.90
45715;DHT22;31430;61.646;24.704;2022-10-22T10:53:33;8.30;99.90
45715;DHT22;31430;61.646;24.704;2022-10-22T10:58:53;8.40;99.90
45715;DHT22;31430;61.646;24.704;2022-10-22T11:01:40;8.50;99.90
45715;DHT22;31430;61.646;24.704;2022-10-22T11:07:04;8.30;99.90
45715;DHT22;31430;61.646;24.704;2022-10-22T11:09:52;8.30;99.90
45715;DHT22;31430;61.646;24.704;2022-10-22T11:12:29;8.30;99.90
45715;DHT22;31430;61.646;24.704;2022-10-22T11:15:02;8.30;99.90
45715;DHT22;31430;61.646;24.704;2022-10-22T11:17:37;8.40;99.90
45715;DHT22;31430;61.646;24.704;2022-10-22T11:22:42;8.40;99.90
45715;DHT22;31430;61.646;24.704;2022-10-22T11:25:29;8.40;99.90
45715;DHT22;31430;61.646;24.704;2022-10-22T11:28:08;8.40;99.90
45715;DHT22;31430;61.646;24.704;2022-10-22T11:30:36;8.30;99.90
45715;DHT22;31430;61.646;24.704;2022-10-22T11:33:10;8.40;99.90
45715;DHT22;31430;61.646;24.704;2022-10-22T11:35:40;8.40;99.90
45715;DHT22;31430;61.646;24.704;2022-10-22T11:38:09;8.30;99.90
45715;DHT22;31430;61.646;24.704;2022-10-22T11:40:38;8.30;99.90
45715;DHT22;31430;61.646;24.704;2022-10-22T11:43:29;8.40;99.90
45715;DHT22;31430;61.646;24.704;2022-10-22T11:46:02;8.30;99.90
45715;DHT22;31430;61.646;24.704;2022-10-22T11:48:35;8.40;99.90
45715;DHT22;31430;61.646;24.704;2022-10-22T11:51:01;8.50;99.90
45715;DHT22;31430;61.646;24.704;2022-10-22T11:53:34;8.50;99.90
45715;DHT22;31430;61.646;24.704;2022-10-22T12:11:37;8.30;99.90
45715;DHT22;31430;61.646;24.704;2022-10-22T12:14:22;8.30;99.90
45715;DHT22;31430;61.646;24.704;2022-10-22T12:17:15;8.30;99.90
45715;DHT22;31430;61.646;24.704;2022-10-22T12:20:06;8.30;99.90
45715;DHT22;31430;61.646;24.704;2022-10-22T12:22:35;8.20;99.90
45715;DHT22;31430;61.646;24.704;2022-10-22T12:25:17;8.30;99.90
45715;DHT22;31430;61.646;24.704;2022-10-22T12:27:49;8.30;99.90
45715;DHT22;31430;61.646;24.704;2022-10-22T12:30:22;8.20;99.90
45715;DHT22;31430;61.646;24.704;2022-10-22T12:32:54;8.10;99.90
45715;DHT22;31430;61.646;24.704;2022-10-22T12:35:24;8.10;99.90
45715;DHT22;31430;61.646;24.704;2022-10-22T12:37:55;8.00;99.90
45715;DHT22;31430;61.646;24.704;2022-10-22T12:40:28;8.10;99.90
45715;DHT22;31430;61.646;24.704;2022-10-22T12:43:00;8.00;99.90
45715;DHT22;31430;61.646;24.704;2022-10-22T12:45:32;8.00;99.90
45715;DHT22;31430;61.646;24.704;2022-10-22T12:48:35;7.90;99.90
45715;DHT22;31430;61.646;24.704;2022-10-22T12:50:54;7.90;99.90
45715;DHT22;31430;61.646;24.704;2022-10-22T12:55:55;8.00;99.90
45715;DHT22;31430;61.646;24.704;2022-10-22T12:58:26;7.90;99.90
45715;DHT22;31430;61.646;24.704;2022-10-22T13:00:54;7.80;99.90
45715;DHT22;31430;61.646;24.704;2022-10-22T13:03:40;7.80;99.90
45715;DHT22;31430;61.646;24.704;2022-10-22T13:09:16;7.80;99.90
45715;DHT22;31430;61.646;24.704;2022-10-22T13:12:02;7.70;99.90
45715;DHT22;31430;61.646;24.704;2022-10-22T13:14:30;7.70;99.90
45715;DHT22;31430;61.646;24.704;2022-10-22T13:17:11;7.70;99.90
45715;DHT22;31430;61.646;24.704;2022-10-22T13:19:47;7.70;99.90
45715;DHT22;31430;61.646;24.704;2022-10-22T13:24:51;7.70;99.90
45715;DHT22;31430;61.646;24.704;2022-10-22T13:27:17;7.60;99.90
45715;DHT22;31430;61.646;24.704;2022-10-22T13:29:43;7.60;99.90
45715;DHT22;31430;61.646;24.704;2022-10-22T13:32:29;7.60;99.90
45715;DHT22;31430;61.646;24.704;2022-10-22T13:34:57;7.60;99.90
45715;DHT22;31430;61.646;24.704;2022-10-22T13:37:24;7.60;99.90
45715;DHT22;31430;61.646;24.704;2022-10-22T13:39:50;7.50;99.90
45715;DHT22;31430;61.646;24.704;2022-10-22T13:42:15;7.50;99.90
45715;DHT22;31430;61.646;24.704;2022-10-22T13:44:41;7.50;99.90
45715;DHT22;31430;61.646;24.704;2022-10-22T13:47:26;7.50;99.90
45715;DHT22;31430;61.646;24.704;2022-10-22T13:50:00;7.50;99.90
45715;DHT22;31430;61.646;24.704;2022-10-22T13:52:50;7.50;99.90
45715;DHT22;31430;61.646;24.704;2022-10-22T13:57:46;7.30;99.90
45715;DHT22;31430;61.646;24.704;2022-10-22T14:00:12;7.30;99.90
45715;DHT22;31430;61.646;24.704;2022-10-22T14:02:39;7.30;99.90
45715;DHT22;31430;61.646;24.704;2022-10-22T14:05:05;7.20;99.90
45715;DHT22;31430;61.646;24.704;2022-10-22T14:07:37;7.30;99.90
45715;DHT22;31430;61.646;24.704;2022-10-22T14:10:19;7.30;99.90
45715;DHT22;31430;61.646;24.704;2022-10-22T14:12:46;7.20;99.90
45715;DHT22;31430;61.646;24.704;2022-10-22T14:15:13;7.20;99.90
45715;DHT22;31430;61.646;24.704;2022-10-22T14:17:41;7.20;99.90
45715;DHT22;31430;61.646;24.704;2022-10-22T14:20:14;7.20;99.90
45715;DHT22;31430;61.646;24.704;2022-10-22T14:22:41;7.10;99.90
45715;DHT22;31430;61.646;24.704;2022-10-22T14:25:10;7.00;99.90
45715;DHT22;31430;61.646;24.704;2022-10-22T14:27:37;7.10;99.90
45715;DHT22;31430;61.646;24.704;2022-10-22T14:30:04;7.00;99.90
45715;DHT22;31430;61.646;24.704;2022-10-22T14:32:30;7.10;99.90
45715;DHT22;31430;61.646;24.704;2022-10-22T14:34:56;7.00;99.90
45715;DHT22;31430;61.646;24.704;2022-10-22T14:37:23;7.00;99.90
45715;DHT22;31430;61.646;24.704;2022-10-22T14:39:49;7.00;99.90
45715;DHT22;31430;61.646;24.704;2022-10-22T14:42:26;6.90;99.90
45715;DHT22;31430;61.646;24.704;2022-10-22T14:44:51;7.00;99.90
45715;DHT22;31430;61.646;24.704;2022-10-22T14:47:17;7.00;99.90
45715;DHT22;31430;61.646;24.704;2022-10-22T14:49:43;7.00;99.90
45715;DHT22;31430;61.646;24.704;2022-10-22T14:52:08;7.00;99.90
45715;DHT22;31430;61.646;24.704;2022-10-22T14:54:34;6.90;99.90
45715;DHT22;31430;61.646;24.704;2022-10-22T14:57:01;6.80;99.90
45715;DHT22;31430;61.646;24.704;2022-10-22T14:59:27;6.90;99.90
45715;DHT22;31430;61.646;24.704;2022-10-22T15:01:53;6.80;99.90
45715;DHT22;31430;61.646;24.704;2022-10-22T15:04:18;6.90;99.90
45715;DHT22;31430;61.646;24.704;2022-10-22T15:06:44;6.80;99.90
45715;DHT22;31430;61.646;24.704;2022-10-22T15:09:10;6.80;99.90
45715;DHT22;31430;61.646;24.704;2022-10-22T15:11:35;6.90;99.90
45715;DHT22;31430;61.646;24.704;2022-10-22T15:14:01;6.80;99.90
45715;DHT22;31430;61.646;24.704;2022-10-22T15:16:27;6.80;99.90
45715;DHT22;31430;61.646;24.704;2022-10-22T15:18:52;6.70;99.90
45715;DHT22;31430;61.646;24.704;2022-10-22T15:21:20;6.70;99.90
45715;DHT22;31430;61.646;24.704;2022-10-22T15:23:47;6.70;99.90
45715;DHT22;31430;61.646;24.704;2022-10-22T15:26:13;6.80;99.90
45715;DHT22;31430;61.646;24.704;2022-10-22T15:28:39;6.70;99.90
45715;DHT22;31430;61.646;24.704;2022-10-22T15:31:06;6.70;99.90
45715;DHT22;31430;61.646;24.704;2022-10-22T15:33:32;6.70;99.90
45715;DHT22;31430;61.646;24.704;2022-10-22T15:36:07;6.70;99.90
45715;DHT22;31430;61.646;24.704;2022-10-22T15:38:33;6.70;99.90
45715;DHT22;31430;61.646;24.704;2022-10-22T15:41:02;6.60;99.90
45715;DHT22;31430;61.646;24.704;2022-10-22T15:43:28;6.60;99.90
45715;DHT22;31430;61.646;24.704;2022-10-22T15:48:32;6.50;99.90
45715;DHT22;31430;61.646;24.704;2022-10-22T15:50:58;6.50;99.90
45715;DHT22;31430;61.646;24.704;2022-10-22T15:53:24;6.50;99.90
45715;DHT22;31430;61.646;24.704;2022-10-22T15:55:49;6.40;99.90
45715;DHT22;31430;61.646;24.704;2022-10-22T15:58:15;6.40;99.90
45715;DHT22;31430;61.646;24.704;2022-10-22T16:00:41;6.50;99.90
45715;DHT22;31430;61.646;24.704;2022-10-22T16:03:06;6.50;99.90
45715;DHT22;31430;61.646;24.704;2022-10-22T16:05:32;6.50;99.90
45715;DHT22;31430;61.646;24.704;2022-10-22T16:07:58;6.50;99.90
45715;DHT22;31430;61.646;24.704;2022-10-22T16:10:23;6.50;99.90
45715;DHT22;31430;61.646;24.704;2022-10-22T16:12:49;6.50;99.90
45715;DHT22;31430;61.646;24.704;2022-10-22T16:15:18;6.50;99.90
45715;DHT22;31430;61.646;24.704;2022-10-22T16:17:44;6.50;99.90
45715;DHT22;31430;61.646;24.704;2022-10-22T16:20:10;6.50;99.90
45715;DHT22;31430;61.646;24.704;2022-10-22T16:22:35;6.40;99.90
45715;DHT22;31430;61.646;24.704;2022-10-22T16:25:01;6.50;99.90
45715;DHT22;31430;61.646;24.704;2022-10-22T16:27:27;6.40;99.90
45715;DHT22;31430;61.646;24.704;2022-10-22T16:29:52;6.40;99.90
45715;DHT22;31430;61.646;24.704;2022-10-22T16:32:18;6.50;99.90
45715;DHT22;31430;61.646;24.704;2022-10-22T16:34:44;6.40;99.90
45715;DHT22;31430;61.646;24.704;2022-10-22T16:37:09;6.40;99.90
45715;DHT22;31430;61.646;24.704;2022-10-22T16:39:35;6.40;99.90
45715;DHT22;31430;61.646;24.704;2022-10-22T16:42:01;6.40;99.90
45715;DHT22;31430;61.646;24.704;2022-10-22T16:44:26;6.30;99.90
45715;DHT22;31430;61.646;24.704;2022-10-22T16:46:52;6.30;99.90
45715;DHT22;31430;61.646;24.704;2022-10-22T16:49:18;6.30;99.90
45715;DHT22;31430;61.646;24.704;2022-10-22T16:51:43;6.30;99.90
45715;DHT22;31430;61.646;24.704;2022-10-22T16:54:11;6.20;99.90
45715;DHT22;31430;61.646;24.704;2022-10-22T16:56:37;6.20;99.90
45715;DHT22;31430;61.646;24.704;2022-10-22T16:59:02;6.20;99.90
45715;DHT22;31430;61.646;24.704;2022-10-22T17:01:28;6.20;99.90
45715;DHT22;31430;61.646;24.704;2022-10-22T17:03:55;6.20;99.90
45715;DHT22;31430;61.646;24.704;2022-10-22T17:06:23;6.10;99.90
45715;DHT22;31430;61.646;24.704;2022-10-22T17:08:48;6.10;99.90
45715;DHT22;31430;61.646;24.704;2022-10-22T17:11:17;6.10;99.90
45715;DHT22;31430;61.646;24.704;2022-10-22T17:13:45;6.10;99.90
45715;DHT22;31430;61.646;24.704;2022-10-22T17:16:13;6.10;99.90
45715;DHT22;31430;61.646;24.704;2022-10-22T17:18:40;6.00;99.90
45715;DHT22;31430;61.646;24.704;2022-10-22T17:21:08;6.00;99.90
45715;DHT22;31430;61.646;24.704;2022-10-22T17:23:34;6.00;99.90
45715;DHT22;31430;61.646;24.704;2022-10-22T17:26:03;6.00;99.90
45715;DHT22;31430;61.646;24.704;2022-10-22T17:28:49;6.00;99.90